sensor_id;sensor_type;location;lat;lon;timestamp;P1;durP1;ratioP1;P2;durP2;ratioP2
7813;SDS011;3952;48.364;16.022;2024-02-21T00:00:55;4.57;;;3.37;;
7813;SDS011;3952;48.364;16.022;2024-02-21T00:03:22;3.63;;;3.30;;
7813;SDS011;3952;48.364;16.022;2024-02-21T00:05:50;6.13;;;3.40;;
7813;SDS011;3952;48.364;16.022;2024-02-21T00:08:17;5.40;;;3.60;;
7813;SDS011;3952;48.364;16.022;2024-02-21T00:10:44;4.53;;;3.53;;
7813;SDS011;3952;48.364;16.022;2024-02-21T00:13:13;4.40;;;3.47;;
7813;SDS011;3952;48.364;16.022;2024-02-21T00:15:41;5.53;;;3.33;;
7813;SDS011;3952;48.364;16.022;2024-02-21T00:18:08;6.77;;;3.77;;
7813;SDS011;3952;48.364;16.022;2024-02-21T00:20:36;5.20;;;3.40;;
7813;SDS011;3952;48.364;16.022;2024-02-21T00:23:03;3.50;;;3.20;;
7813;SDS011;3952;48.364;16.022;2024-02-21T00:25:31;4.03;;;3.10;;
7813;SDS011;3952;48.364;16.022;2024-02-21T00:27:58;7.47;;;3.60;;
7813;SDS011;3952;48.364;16.022;2024-02-21T00:30:27;4.27;;;3.43;;
7813;SDS011;3952;48.364;16.022;2024-02-21T00:32:54;6.77;;;3.67;;
7813;SDS011;3952;48.364;16.022;2024-02-21T00:35:21;5.50;;;3.20;;
7813;SDS011;3952;48.364;16.022;2024-02-21T00:37:49;3.97;;;3.40;;
7813;SDS011;3952;48.364;16.022;2024-02-21T00:40:16;5.23;;;3.20;;
7813;SDS011;3952;48.364;16.022;2024-02-21T00:42:45;3.40;;;3.10;;
7813;SDS011;3952;48.364;16.022;2024-02-21T00:45:12;6.20;;;3.30;;
7813;SDS011;3952;48.364;16.022;2024-02-21T00:47:41;4.50;;;2.60;;
7813;SDS011;3952;48.364;16.022;2024-02-21T00:50:09;7.13;;;3.20;;
7813;SDS011;3952;48.364;16.022;2024-02-21T00:52:36;4.93;;;3.33;;
7813;SDS011;3952;48.364;16.022;2024-02-21T00:55:04;3.47;;;3.10;;
7813;SDS011;3952;48.364;16.022;2024-02-21T00:57:32;4.80;;;2.73;;
7813;SDS011;3952;48.364;16.022;2024-02-21T00:59:59;5.07;;;3.00;;
7813;SDS011;3952;48.364;16.022;2024-02-21T01:02:26;5.47;;;2.70;;
7813;SDS011;3952;48.364;16.022;2024-02-21T01:04:58;5.00;;;3.00;;
7813;SDS011;3952;48.364;16.022;2024-02-21T01:07:25;5.10;;;2.80;;
7813;SDS011;3952;48.364;16.022;2024-02-21T01:09:52;4.67;;;3.27;;
7813;SDS011;3952;48.364;16.022;2024-02-21T01:12:19;3.70;;;2.80;;
7813;SDS011;3952;48.364;16.022;2024-02-21T01:14:47;3.73;;;3.03;;
7813;SDS011;3952;48.364;16.022;2024-02-21T01:17:14;5.23;;;3.30;;
7813;SDS011;3952;48.364;16.022;2024-02-21T01:19:42;3.07;;;2.77;;
7813;SDS011;3952;48.364;16.022;2024-02-21T01:22:11;5.37;;;2.90;;
7813;SDS011;3952;48.364;16.022;2024-02-21T01:24:38;7.60;;;3.17;;
7813;SDS011;3952;48.364;16.022;2024-02-21T01:27:05;4.60;;;2.83;;
7813;SDS011;3952;48.364;16.022;2024-02-21T01:29:33;6.67;;;2.63;;
7813;SDS011;3952;48.364;16.022;2024-02-21T01:32:00;4.03;;;2.90;;
7813;SDS011;3952;48.364;16.022;2024-02-21T01:34:27;5.93;;;3.00;;
7813;SDS011;3952;48.364;16.022;2024-02-21T01:36:55;5.13;;;3.00;;
7813;SDS011;3952;48.364;16.022;2024-02-21T01:39:24;4.63;;;2.83;;
7813;SDS011;3952;48.364;16.022;2024-02-21T01:41:51;4.60;;;3.03;;
7813;SDS011;3952;48.364;16.022;2024-02-21T01:44:19;4.70;;;2.87;;
7813;SDS011;3952;48.364;16.022;2024-02-21T01:46:46;6.27;;;2.93;;
7813;SDS011;3952;48.364;16.022;2024-02-21T01:49:14;5.33;;;2.93;;
7813;SDS011;3952;48.364;16.022;2024-02-21T01:51:41;2.93;;;2.50;;
7813;SDS011;3952;48.364;16.022;2024-02-21T01:54:09;4.50;;;2.80;;
7813;SDS011;3952;48.364;16.022;2024-02-21T01:56:39;6.50;;;2.97;;
7813;SDS011;3952;48.364;16.022;2024-02-21T01:59:06;5.03;;;3.30;;
7813;SDS011;3952;48.364;16.022;2024-02-21T02:01:34;4.10;;;3.13;;
7813;SDS011;3952;48.364;16.022;2024-02-21T02:04:01;4.73;;;2.60;;
7813;SDS011;3952;48.364;16.022;2024-02-21T02:06:30;4.77;;;2.93;;
7813;SDS011;3952;48.364;16.022;2024-02-21T02:08:58;5.00;;;3.10;;
7813;SDS011;3952;48.364;16.022;2024-02-21T02:11:25;6.10;;;2.77;;
7813;SDS011;3952;48.364;16.022;2024-02-21T02:13:55;4.57;;;2.67;;
7813;SDS011;3952;48.364;16.022;2024-02-21T02:16:22;4.53;;;2.60;;
7813;SDS011;3952;48.364;16.022;2024-02-21T02:18:49;3.03;;;2.60;;
7813;SDS011;3952;48.364;16.022;2024-02-21T02:21:21;3.80;;;2.50;;
7813;SDS011;3952;48.364;16.022;2024-02-21T02:23:55;5.17;;;2.93;;
7813;SDS011;3952;48.364;16.022;2024-02-21T02:26:22;5.27;;;2.97;;
7813;SDS011;3952;48.364;16.022;2024-02-21T02:28:50;3.43;;;2.60;;
7813;SDS011;3952;48.364;16.022;2024-02-21T02:31:17;4.90;;;3.00;;
7813;SDS011;3952;48.364;16.022;2024-02-21T02:33:44;4.60;;;2.97;;
7813;SDS011;3952;48.364;16.022;2024-02-21T02:36:13;5.70;;;2.67;;
7813;SDS011;3952;48.364;16.022;2024-02-21T02:38:40;5.57;;;3.00;;
7813;SDS011;3952;48.364;16.022;2024-02-21T02:41:09;4.30;;;3.27;;
7813;SDS011;3952;48.364;16.022;2024-02-21T02:43:36;4.80;;;2.87;;
7813;SDS011;3952;48.364;16.022;2024-02-21T02:46:04;5.30;;;3.07;;
7813;SDS011;3952;48.364;16.022;2024-02-21T02:48:31;4.80;;;3.13;;
7813;SDS011;3952;48.364;16.022;2024-02-21T02:50:58;8.03;;;3.77;;
7813;SDS011;3952;48.364;16.022;2024-02-21T02:53:26;6.30;;;3.30;;
7813;SDS011;3952;48.364;16.022;2024-02-21T02:55:53;4.07;;;2.90;;
7813;SDS011;3952;48.364;16.022;2024-02-21T02:58:22;6.30;;;3.20;;
7813;SDS011;3952;48.364;16.022;2024-02-21T03:00:50;5.27;;;3.50;;
7813;SDS011;3952;48.364;16.022;2024-02-21T03:03:17;6.77;;;3.50;;
7813;SDS011;3952;48.364;16.022;2024-02-21T03:05:45;7.70;;;3.50;;
7813;SDS011;3952;48.364;16.022;2024-02-21T03:08:12;5.10;;;3.60;;
7813;SDS011;3952;48.364;16.022;2024-02-21T03:10:40;5.70;;;3.27;;
7813;SDS011;3952;48.364;16.022;2024-02-21T03:13:07;4.07;;;3.00;;
7813;SDS011;3952;48.364;16.022;2024-02-21T03:15:36;6.93;;;3.53;;
7813;SDS011;3952;48.364;16.022;2024-02-21T03:18:04;8.70;;;3.10;;
7813;SDS011;3952;48.364;16.022;2024-02-21T03:20:31;7.07;;;4.17;;
7813;SDS011;3952;48.364;16.022;2024-02-21T03:22:58;5.33;;;3.03;;
7813;SDS011;3952;48.364;16.022;2024-02-21T03:25:26;5.87;;;3.23;;
7813;SDS011;3952;48.364;16.022;2024-02-21T03:27:53;4.27;;;3.50;;
7813;SDS011;3952;48.364;16.022;2024-02-21T03:30:20;7.87;;;3.53;;
7813;SDS011;3952;48.364;16.022;2024-02-21T03:32:49;6.57;;;3.40;;
7813;SDS011;3952;48.364;16.022;2024-02-21T03:35:16;6.50;;;3.60;;
7813;SDS011;3952;48.364;16.022;2024-02-21T03:37:44;5.33;;;3.30;;
7813;SDS011;3952;48.364;16.022;2024-02-21T03:40:12;10.63;;;3.60;;
7813;SDS011;3952;48.364;16.022;2024-02-21T03:42:39;6.47;;;3.90;;
7813;SDS011;3952;48.364;16.022;2024-02-21T03:45:07;7.40;;;3.77;;
7813;SDS011;3952;48.364;16.022;2024-02-21T03:47:35;8.90;;;3.43;;
7813;SDS011;3952;48.364;16.022;2024-02-21T03:50:05;4.30;;;3.60;;
7813;SDS011;3952;48.364;16.022;2024-02-21T03:52:33;7.07;;;4.87;;
7813;SDS011;3952;48.364;16.022;2024-02-21T03:55:00;8.80;;;4.60;;
7813;SDS011;3952;48.364;16.022;2024-02-21T03:57:28;6.17;;;3.63;;
7813;SDS011;3952;48.364;16.022;2024-02-21T03:59:56;7.93;;;4.00;;
7813;SDS011;3952;48.364;16.022;2024-02-21T04:02:23;8.53;;;3.80;;
7813;SDS011;3952;48.364;16.022;2024-02-21T04:04:50;9.17;;;4.37;;
7813;SDS011;3952;48.364;16.022;2024-02-21T04:07:19;7.20;;;3.40;;
7813;SDS011;3952;48.364;16.022;2024-02-21T04:09:46;4.97;;;4.13;;
7813;SDS011;3952;48.364;16.022;2024-02-21T04:12:14;6.57;;;3.90;;
7813;SDS011;3952;48.364;16.022;2024-02-21T04:14:41;5.80;;;4.13;;
7813;SDS011;3952;48.364;16.022;2024-02-21T04:17:08;5.00;;;3.70;;
7813;SDS011;3952;48.364;16.022;2024-02-21T04:19:36;7.27;;;4.03;;
7813;SDS011;3952;48.364;16.022;2024-02-21T04:22:04;6.97;;;3.70;;
7813;SDS011;3952;48.364;16.022;2024-02-21T04:24:32;9.13;;;4.63;;
7813;SDS011;3952;48.364;16.022;2024-02-21T04:27:00;5.83;;;4.10;;
7813;SDS011;3952;48.364;16.022;2024-02-21T04:29:27;3.43;;;3.13;;
7813;SDS011;3952;48.364;16.022;2024-02-21T04:31:55;6.43;;;3.47;;
7813;SDS011;3952;48.364;16.022;2024-02-21T04:34:22;11.13;;;4.20;;
7813;SDS011;3952;48.364;16.022;2024-02-21T04:36:49;5.33;;;4.10;;
7813;SDS011;3952;48.364;16.022;2024-02-21T04:39:17;6.80;;;4.37;;
7813;SDS011;3952;48.364;16.022;2024-02-21T04:41:45;7.30;;;3.50;;
7813;SDS011;3952;48.364;16.022;2024-02-21T04:44:13;7.97;;;3.80;;
7813;SDS011;3952;48.364;16.022;2024-02-21T04:46:41;8.70;;;4.10;;
7813;SDS011;3952;48.364;16.022;2024-02-21T04:49:09;4.83;;;4.33;;
7813;SDS011;3952;48.364;16.022;2024-02-21T04:51:36;5.97;;;4.50;;
7813;SDS011;3952;48.364;16.022;2024-02-21T04:54:05;7.47;;;4.37;;
7813;SDS011;3952;48.364;16.022;2024-02-21T04:56:33;6.30;;;4.00;;
7813;SDS011;3952;48.364;16.022;2024-02-21T04:59:02;7.40;;;4.60;;
7813;SDS011;3952;48.364;16.022;2024-02-21T05:01:30;5.90;;;4.10;;
7813;SDS011;3952;48.364;16.022;2024-02-21T05:03:57;6.43;;;4.87;;
7813;SDS011;3952;48.364;16.022;2024-02-21T05:06:24;5.53;;;4.43;;
7813;SDS011;3952;48.364;16.022;2024-02-21T05:08:52;8.80;;;5.13;;
7813;SDS011;3952;48.364;16.022;2024-02-21T05:11:20;7.80;;;4.47;;
7813;SDS011;3952;48.364;16.022;2024-02-21T05:13:47;5.00;;;4.50;;
7813;SDS011;3952;48.364;16.022;2024-02-21T05:16:16;11.37;;;4.97;;
7813;SDS011;3952;48.364;16.022;2024-02-21T05:18:44;5.13;;;4.63;;
7813;SDS011;3952;48.364;16.022;2024-02-21T05:21:11;6.93;;;4.70;;
7813;SDS011;3952;48.364;16.022;2024-02-21T05:23:39;6.77;;;4.50;;
7813;SDS011;3952;48.364;16.022;2024-02-21T05:26:07;11.07;;;4.60;;
7813;SDS011;3952;48.364;16.022;2024-02-21T05:28:34;9.80;;;4.70;;
7813;SDS011;3952;48.364;16.022;2024-02-21T05:31:02;8.53;;;4.30;;
7813;SDS011;3952;48.364;16.022;2024-02-21T05:33:31;4.43;;;3.73;;
7813;SDS011;3952;48.364;16.022;2024-02-21T05:35:58;4.30;;;3.87;;
7813;SDS011;3952;48.364;16.022;2024-02-21T05:38:25;4.00;;;3.60;;
7813;SDS011;3952;48.364;16.022;2024-02-21T05:40:52;6.77;;;3.60;;
7813;SDS011;3952;48.364;16.022;2024-02-21T05:43:20;10.07;;;4.83;;
7813;SDS011;3952;48.364;16.022;2024-02-21T05:45:47;6.43;;;3.70;;
7813;SDS011;3952;48.364;16.022;2024-02-21T05:48:15;5.57;;;3.70;;
7813;SDS011;3952;48.364;16.022;2024-02-21T05:50:43;5.87;;;3.50;;
7813;SDS011;3952;48.364;16.022;2024-02-21T05:53:11;5.57;;;3.17;;
7813;SDS011;3952;48.364;16.022;2024-02-21T05:55:38;7.30;;;3.73;;
7813;SDS011;3952;48.364;16.022;2024-02-21T05:58:06;7.80;;;3.60;;
7813;SDS011;3952;48.364;16.022;2024-02-21T06:00:35;5.07;;;3.70;;
7813;SDS011;3952;48.364;16.022;2024-02-21T06:03:03;4.03;;;3.57;;
7813;SDS011;3952;48.364;16.022;2024-02-21T06:05:31;9.00;;;3.60;;
7813;SDS011;3952;48.364;16.022;2024-02-21T06:08:04;6.03;;;3.43;;
7813;SDS011;3952;48.364;16.022;2024-02-21T06:10:32;7.60;;;3.93;;
7813;SDS011;3952;48.364;16.022;2024-02-21T06:12:59;5.20;;;3.77;;
7813;SDS011;3952;48.364;16.022;2024-02-21T06:15:27;11.57;;;4.10;;
7813;SDS011;3952;48.364;16.022;2024-02-21T06:17:54;4.87;;;3.80;;
7813;SDS011;3952;48.364;16.022;2024-02-21T06:20:21;4.03;;;3.13;;
7813;SDS011;3952;48.364;16.022;2024-02-21T06:22:49;4.53;;;4.07;;
7813;SDS011;3952;48.364;16.022;2024-02-21T06:25:17;4.10;;;3.20;;
7813;SDS011;3952;48.364;16.022;2024-02-21T06:27:45;7.67;;;3.53;;
7813;SDS011;3952;48.364;16.022;2024-02-21T06:30:12;4.77;;;4.00;;
7813;SDS011;3952;48.364;16.022;2024-02-21T06:32:40;6.10;;;3.47;;
7813;SDS011;3952;48.364;16.022;2024-02-21T06:35:07;6.37;;;3.53;;
7813;SDS011;3952;48.364;16.022;2024-02-21T06:37:35;5.87;;;3.80;;
7813;SDS011;3952;48.364;16.022;2024-02-21T06:40:04;5.27;;;3.50;;
7813;SDS011;3952;48.364;16.022;2024-02-21T06:42:34;8.87;;;4.17;;
7813;SDS011;3952;48.364;16.022;2024-02-21T06:45:01;5.83;;;3.70;;
7813;SDS011;3952;48.364;16.022;2024-02-21T06:47:28;10.10;;;4.93;;
7813;SDS011;3952;48.364;16.022;2024-02-21T06:49:56;4.10;;;3.67;;
7813;SDS011;3952;48.364;16.022;2024-02-21T06:52:23;6.63;;;3.03;;
7813;SDS011;3952;48.364;16.022;2024-02-21T06:54:51;4.10;;;3.00;;
7813;SDS011;3952;48.364;16.022;2024-02-21T06:57:18;3.87;;;3.40;;
7813;SDS011;3952;48.364;16.022;2024-02-21T06:59:47;3.03;;;2.83;;
7813;SDS011;3952;48.364;16.022;2024-02-21T07:02:14;5.40;;;3.73;;
7813;SDS011;3952;48.364;16.022;2024-02-21T07:04:42;5.03;;;3.10;;
7813;SDS011;3952;48.364;16.022;2024-02-21T07:07:10;4.73;;;3.23;;
7813;SDS011;3952;48.364;16.022;2024-02-21T07:09:37;4.27;;;3.20;;
7813;SDS011;3952;48.364;16.022;2024-02-21T07:12:05;4.50;;;2.77;;
7813;SDS011;3952;48.364;16.022;2024-02-21T07:14:33;3.10;;;2.80;;
7813;SDS011;3952;48.364;16.022;2024-02-21T07:17:01;4.03;;;3.43;;
7813;SDS011;3952;48.364;16.022;2024-02-21T07:19:29;5.10;;;3.33;;
7813;SDS011;3952;48.364;16.022;2024-02-21T07:21:57;4.87;;;3.67;;
7813;SDS011;3952;48.364;16.022;2024-02-21T07:24:24;3.90;;;3.20;;
7813;SDS011;3952;48.364;16.022;2024-02-21T07:26:51;4.60;;;2.73;;
7813;SDS011;3952;48.364;16.022;2024-02-21T07:29:19;4.50;;;2.60;;
7813;SDS011;3952;48.364;16.022;2024-02-21T07:31:46;3.63;;;2.83;;
7813;SDS011;3952;48.364;16.022;2024-02-21T07:34:18;6.57;;;3.60;;
7813;SDS011;3952;48.364;16.022;2024-02-21T07:36:46;6.00;;;2.67;;
7813;SDS011;3952;48.364;16.022;2024-02-21T07:39:13;2.70;;;2.50;;
7813;SDS011;3952;48.364;16.022;2024-02-21T07:41:41;5.93;;;2.60;;
7813;SDS011;3952;48.364;16.022;2024-02-21T07:44:11;6.03;;;2.80;;
7813;SDS011;3952;48.364;16.022;2024-02-21T07:46:38;3.00;;;2.23;;
7813;SDS011;3952;48.364;16.022;2024-02-21T07:49:06;3.53;;;2.57;;
7813;SDS011;3952;48.364;16.022;2024-02-21T07:51:35;3.63;;;2.67;;
7813;SDS011;3952;48.364;16.022;2024-02-21T07:54:02;4.90;;;2.27;;
7813;SDS011;3952;48.364;16.022;2024-02-21T07:56:30;4.47;;;2.53;;
7813;SDS011;3952;48.364;16.022;2024-02-21T07:58:57;3.93;;;2.53;;
7813;SDS011;3952;48.364;16.022;2024-02-21T08:01:25;5.20;;;3.00;;
7813;SDS011;3952;48.364;16.022;2024-02-21T08:03:52;3.87;;;2.60;;
7813;SDS011;3952;48.364;16.022;2024-02-21T08:06:19;2.70;;;2.40;;
7813;SDS011;3952;48.364;16.022;2024-02-21T08:08:48;4.53;;;2.40;;
7813;SDS011;3952;48.364;16.022;2024-02-21T08:11:15;3.80;;;2.57;;
7813;SDS011;3952;48.364;16.022;2024-02-21T08:13:43;3.53;;;2.33;;
7813;SDS011;3952;48.364;16.022;2024-02-21T08:16:10;2.10;;;1.83;;
7813;SDS011;3952;48.364;16.022;2024-02-21T08:18:37;4.93;;;2.47;;
7813;SDS011;3952;48.364;16.022;2024-02-21T08:21:05;6.07;;;2.13;;
7813;SDS011;3952;48.364;16.022;2024-02-21T08:23:32;3.83;;;1.97;;
7813;SDS011;3952;48.364;16.022;2024-02-21T08:26:02;3.33;;;2.13;;
7813;SDS011;3952;48.364;16.022;2024-02-21T08:28:30;4.87;;;2.20;;
7813;SDS011;3952;48.364;16.022;2024-02-21T08:30:57;3.23;;;2.40;;
7813;SDS011;3952;48.364;16.022;2024-02-21T08:33:25;4.73;;;2.03;;
7813;SDS011;3952;48.364;16.022;2024-02-21T08:35:52;4.37;;;2.40;;
7813;SDS011;3952;48.364;16.022;2024-02-21T08:38:20;2.63;;;2.20;;
7813;SDS011;3952;48.364;16.022;2024-02-21T08:40:47;3.87;;;2.40;;
7813;SDS011;3952;48.364;16.022;2024-02-21T08:43:16;4.27;;;2.53;;
7813;SDS011;3952;48.364;16.022;2024-02-21T08:45:43;4.17;;;2.27;;
7813;SDS011;3952;48.364;16.022;2024-02-21T08:48:11;3.13;;;2.20;;
7813;SDS011;3952;48.364;16.022;2024-02-21T08:50:38;2.70;;;2.00;;
7813;SDS011;3952;48.364;16.022;2024-02-21T08:53:05;2.30;;;2.10;;
7813;SDS011;3952;48.364;16.022;2024-02-21T08:55:33;2.17;;;1.90;;
7813;SDS011;3952;48.364;16.022;2024-02-21T08:58:01;2.70;;;2.27;;
7813;SDS011;3952;48.364;16.022;2024-02-21T09:00:31;5.07;;;2.33;;
7813;SDS011;3952;48.364;16.022;2024-02-21T09:02:58;5.37;;;2.23;;
7813;SDS011;3952;48.364;16.022;2024-02-21T09:05:26;4.37;;;2.20;;
7813;SDS011;3952;48.364;16.022;2024-02-21T09:07:53;3.70;;;2.07;;
7813;SDS011;3952;48.364;16.022;2024-02-21T09:10:20;2.53;;;1.97;;
7813;SDS011;3952;48.364;16.022;2024-02-21T09:12:48;4.37;;;2.47;;
7813;SDS011;3952;48.364;16.022;2024-02-21T09:15:15;4.47;;;1.90;;
7813;SDS011;3952;48.364;16.022;2024-02-21T09:17:44;3.30;;;2.13;;
7813;SDS011;3952;48.364;16.022;2024-02-21T09:20:11;5.50;;;2.00;;
7813;SDS011;3952;48.364;16.022;2024-02-21T09:22:41;3.17;;;1.80;;
7813;SDS011;3952;48.364;16.022;2024-02-21T09:25:08;4.43;;;1.90;;
7813;SDS011;3952;48.364;16.022;2024-02-21T09:27:37;3.93;;;1.90;;
7813;SDS011;3952;48.364;16.022;2024-02-21T09:30:05;3.77;;;2.10;;
7813;SDS011;3952;48.364;16.022;2024-02-21T09:32:33;4.27;;;2.30;;
7813;SDS011;3952;48.364;16.022;2024-02-21T09:35:03;2.50;;;1.93;;
7813;SDS011;3952;48.364;16.022;2024-02-21T09:37:32;2.47;;;1.90;;
7813;SDS011;3952;48.364;16.022;2024-02-21T09:39:59;2.00;;;1.73;;
7813;SDS011;3952;48.364;16.022;2024-02-21T09:42:28;4.73;;;2.20;;
7813;SDS011;3952;48.364;16.022;2024-02-21T09:45:05;3.47;;;2.23;;
7813;SDS011;3952;48.364;16.022;2024-02-21T09:47:40;5.10;;;1.67;;
7813;SDS011;3952;48.364;16.022;2024-02-21T09:50:18;4.53;;;2.00;;
7813;SDS011;3952;48.364;16.022;2024-02-21T09:52:48;4.77;;;1.80;;
7813;SDS011;3952;48.364;16.022;2024-02-21T09:55:16;3.67;;;2.00;;
7813;SDS011;3952;48.364;16.022;2024-02-21T09:57:44;3.60;;;1.90;;
7813;SDS011;3952;48.364;16.022;2024-02-21T10:00:12;4.60;;;1.77;;
7813;SDS011;3952;48.364;16.022;2024-02-21T10:02:46;3.10;;;2.10;;
7813;SDS011;3952;48.364;16.022;2024-02-21T10:05:14;2.47;;;1.87;;
7813;SDS011;3952;48.364;16.022;2024-02-21T10:07:44;4.17;;;1.90;;
7813;SDS011;3952;48.364;16.022;2024-02-21T10:10:11;2.67;;;1.73;;
7813;SDS011;3952;48.364;16.022;2024-02-21T10:12:47;2.80;;;1.80;;
7813;SDS011;3952;48.364;16.022;2024-02-21T10:15:19;3.47;;;1.83;;
7813;SDS011;3952;48.364;16.022;2024-02-21T10:17:48;2.70;;;1.93;;
7813;SDS011;3952;48.364;16.022;2024-02-21T10:20:15;7.27;;;1.83;;
7813;SDS011;3952;48.364;16.022;2024-02-21T10:22:44;5.13;;;1.70;;
7813;SDS011;3952;48.364;16.022;2024-02-21T10:25:12;1.47;;;1.13;;
7813;SDS011;3952;48.364;16.022;2024-02-21T10:27:39;2.53;;;1.60;;
7813;SDS011;3952;48.364;16.022;2024-02-21T10:30:07;3.93;;;1.80;;
7813;SDS011;3952;48.364;16.022;2024-02-21T10:32:48;4.27;;;1.63;;
7813;SDS011;3952;48.364;16.022;2024-02-21T10:35:25;2.67;;;1.70;;
7813;SDS011;3952;48.364;16.022;2024-02-21T10:37:55;1.97;;;1.40;;
7813;SDS011;3952;48.364;16.022;2024-02-21T10:40:23;4.60;;;2.00;;
7813;SDS011;3952;48.364;16.022;2024-02-21T10:42:53;3.00;;;2.13;;
7813;SDS011;3952;48.364;16.022;2024-02-21T10:45:23;3.87;;;1.93;;
7813;SDS011;3952;48.364;16.022;2024-02-21T10:47:56;3.40;;;2.37;;
7813;SDS011;3952;48.364;16.022;2024-02-21T10:50:30;3.70;;;1.53;;
7813;SDS011;3952;48.364;16.022;2024-02-21T10:53:06;2.20;;;1.50;;
7813;SDS011;3952;48.364;16.022;2024-02-21T10:55:46;3.70;;;1.87;;
7813;SDS011;3952;48.364;16.022;2024-02-21T10:58:22;3.40;;;2.10;;
7813;SDS011;3952;48.364;16.022;2024-02-21T11:00:50;3.87;;;2.10;;
7813;SDS011;3952;48.364;16.022;2024-02-21T11:03:19;4.10;;;1.80;;
7813;SDS011;3952;48.364;16.022;2024-02-21T11:05:46;3.90;;;1.67;;
7813;SDS011;3952;48.364;16.022;2024-02-21T11:08:15;3.70;;;2.17;;
7813;SDS011;3952;48.364;16.022;2024-02-21T11:10:45;2.73;;;2.10;;
7813;SDS011;3952;48.364;16.022;2024-02-21T11:13:12;3.57;;;1.67;;
7813;SDS011;3952;48.364;16.022;2024-02-21T11:15:40;2.00;;;1.83;;
7813;SDS011;3952;48.364;16.022;2024-02-21T11:18:08;3.37;;;1.90;;
7813;SDS011;3952;48.364;16.022;2024-02-21T11:20:35;3.27;;;1.93;;
7813;SDS011;3952;48.364;16.022;2024-02-21T11:23:04;7.23;;;2.27;;
7813;SDS011;3952;48.364;16.022;2024-02-21T11:25:33;2.63;;;1.60;;
7813;SDS011;3952;48.364;16.022;2024-02-21T11:28:01;3.83;;;2.07;;
7813;SDS011;3952;48.364;16.022;2024-02-21T11:30:29;3.73;;;1.93;;
7813;SDS011;3952;48.364;16.022;2024-02-21T11:33:01;2.80;;;1.73;;
7813;SDS011;3952;48.364;16.022;2024-02-21T11:35:32;4.13;;;2.23;;
7813;SDS011;3952;48.364;16.022;2024-02-21T11:38:09;2.27;;;1.77;;
7813;SDS011;3952;48.364;16.022;2024-02-21T11:40:41;6.63;;;2.43;;
7813;SDS011;3952;48.364;16.022;2024-02-21T11:43:10;3.83;;;1.57;;
7813;SDS011;3952;48.364;16.022;2024-02-21T11:45:37;3.43;;;2.30;;
7813;SDS011;3952;48.364;16.022;2024-02-21T11:48:05;5.93;;;1.87;;
7813;SDS011;3952;48.364;16.022;2024-02-21T11:50:34;2.17;;;1.60;;
7813;SDS011;3952;48.364;16.022;2024-02-21T11:53:02;4.93;;;2.00;;
7813;SDS011;3952;48.364;16.022;2024-02-21T11:55:29;1.83;;;1.67;;
7813;SDS011;3952;48.364;16.022;2024-02-21T11:57:58;3.33;;;1.60;;
7813;SDS011;3952;48.364;16.022;2024-02-21T12:00:25;5.07;;;2.23;;
7813;SDS011;3952;48.364;16.022;2024-02-21T12:02:53;3.70;;;1.87;;
7813;SDS011;3952;48.364;16.022;2024-02-21T12:05:27;2.03;;;1.50;;
7813;SDS011;3952;48.364;16.022;2024-02-21T12:07:55;3.73;;;1.90;;
7813;SDS011;3952;48.364;16.022;2024-02-21T12:10:23;2.03;;;1.67;;
7813;SDS011;3952;48.364;16.022;2024-02-21T12:12:52;4.70;;;2.37;;
7813;SDS011;3952;48.364;16.022;2024-02-21T12:15:24;3.57;;;2.10;;
7813;SDS011;3952;48.364;16.022;2024-02-21T12:17:52;3.57;;;2.33;;
7813;SDS011;3952;48.364;16.022;2024-02-21T12:20:20;3.40;;;2.20;;
7813;SDS011;3952;48.364;16.022;2024-02-21T12:22:49;2.43;;;1.87;;
7813;SDS011;3952;48.364;16.022;2024-02-21T12:25:17;3.60;;;1.83;;
7813;SDS011;3952;48.364;16.022;2024-02-21T12:27:45;2.10;;;1.77;;
7813;SDS011;3952;48.364;16.022;2024-02-21T12:30:12;3.63;;;1.93;;
7813;SDS011;3952;48.364;16.022;2024-02-21T12:32:41;3.87;;;1.90;;
7813;SDS011;3952;48.364;16.022;2024-02-21T12:35:08;3.87;;;2.00;;
7813;SDS011;3952;48.364;16.022;2024-02-21T12:37:36;2.50;;;1.83;;
7813;SDS011;3952;48.364;16.022;2024-02-21T12:40:04;2.90;;;2.00;;
7813;SDS011;3952;48.364;16.022;2024-02-21T12:42:32;2.80;;;2.00;;
7813;SDS011;3952;48.364;16.022;2024-02-21T12:45:00;4.77;;;2.43;;
7813;SDS011;3952;48.364;16.022;2024-02-21T12:47:28;4.37;;;1.83;;
7813;SDS011;3952;48.364;16.022;2024-02-21T12:49:57;3.10;;;2.00;;
7813;SDS011;3952;48.364;16.022;2024-02-21T12:52:24;2.83;;;1.67;;
7813;SDS011;3952;48.364;16.022;2024-02-21T12:54:52;4.17;;;2.00;;
7813;SDS011;3952;48.364;16.022;2024-02-21T12:57:21;2.40;;;1.57;;
7813;SDS011;3952;48.364;16.022;2024-02-21T12:59:49;4.53;;;2.07;;
7813;SDS011;3952;48.364;16.022;2024-02-21T13:02:16;2.13;;;1.90;;
7813;SDS011;3952;48.364;16.022;2024-02-21T13:04:45;3.77;;;1.83;;
7813;SDS011;3952;48.364;16.022;2024-02-21T13:07:14;2.77;;;1.77;;
7813;SDS011;3952;48.364;16.022;2024-02-21T13:09:41;5.40;;;2.20;;
7813;SDS011;3952;48.364;16.022;2024-02-21T13:12:09;4.83;;;1.63;;
7813;SDS011;3952;48.364;16.022;2024-02-21T13:14:37;2.13;;;1.63;;
7813;SDS011;3952;48.364;16.022;2024-02-21T13:17:04;3.03;;;1.70;;
7813;SDS011;3952;48.364;16.022;2024-02-21T13:19:32;2.83;;;1.60;;
7813;SDS011;3952;48.364;16.022;2024-02-21T13:22:00;6.53;;;2.10;;
7813;SDS011;3952;48.364;16.022;2024-02-21T13:24:29;1.87;;;1.67;;
7813;SDS011;3952;48.364;16.022;2024-02-21T13:26:57;1.97;;;1.43;;
7813;SDS011;3952;48.364;16.022;2024-02-21T13:29:24;2.83;;;1.37;;
7813;SDS011;3952;48.364;16.022;2024-02-21T13:31:51;4.00;;;1.93;;
7813;SDS011;3952;48.364;16.022;2024-02-21T13:34:20;4.57;;;1.73;;
7813;SDS011;3952;48.364;16.022;2024-02-21T13:36:47;4.30;;;1.70;;
7813;SDS011;3952;48.364;16.022;2024-02-21T13:39:15;1.60;;;1.50;;
7813;SDS011;3952;48.364;16.022;2024-02-21T13:41:46;3.40;;;1.60;;
7813;SDS011;3952;48.364;16.022;2024-02-21T13:44:13;3.30;;;1.70;;
7813;SDS011;3952;48.364;16.022;2024-02-21T13:46:40;2.27;;;1.43;;
7813;SDS011;3952;48.364;16.022;2024-02-21T13:49:08;2.53;;;1.50;;
7813;SDS011;3952;48.364;16.022;2024-02-21T13:51:35;3.87;;;1.30;;
7813;SDS011;3952;48.364;16.022;2024-02-21T13:54:03;1.70;;;1.53;;
7813;SDS011;3952;48.364;16.022;2024-02-21T13:56:34;1.87;;;1.23;;
7813;SDS011;3952;48.364;16.022;2024-02-21T13:59:03;2.50;;;1.33;;
7813;SDS011;3952;48.364;16.022;2024-02-21T14:01:30;1.47;;;1.13;;
7813;SDS011;3952;48.364;16.022;2024-02-21T14:03:58;3.77;;;1.37;;
7813;SDS011;3952;48.364;16.022;2024-02-21T14:06:25;3.37;;;1.53;;
7813;SDS011;3952;48.364;16.022;2024-02-21T14:08:52;4.30;;;1.40;;
7813;SDS011;3952;48.364;16.022;2024-02-21T14:11:20;4.40;;;1.10;;
7813;SDS011;3952;48.364;16.022;2024-02-21T14:13:48;2.10;;;1.30;;
7813;SDS011;3952;48.364;16.022;2024-02-21T14:16:17;1.17;;;1.10;;
7813;SDS011;3952;48.364;16.022;2024-02-21T14:18:44;2.00;;;1.27;;
7813;SDS011;3952;48.364;16.022;2024-02-21T14:21:11;1.63;;;1.13;;
7813;SDS011;3952;48.364;16.022;2024-02-21T14:23:39;1.70;;;1.43;;
7813;SDS011;3952;48.364;16.022;2024-02-21T14:26:06;2.57;;;1.53;;
7813;SDS011;3952;48.364;16.022;2024-02-21T14:28:34;1.80;;;1.40;;
7813;SDS011;3952;48.364;16.022;2024-02-21T14:31:01;1.83;;;1.10;;
7813;SDS011;3952;48.364;16.022;2024-02-21T14:33:32;3.17;;;0.80;;
7813;SDS011;3952;48.364;16.022;2024-02-21T14:36:00;1.13;;;1.10;;
7813;SDS011;3952;48.364;16.022;2024-02-21T14:38:27;2.43;;;1.40;;
7813;SDS011;3952;48.364;16.022;2024-02-21T14:40:55;3.23;;;1.07;;
7813;SDS011;3952;48.364;16.022;2024-02-21T14:43:22;2.87;;;1.27;;
7813;SDS011;3952;48.364;16.022;2024-02-21T14:45:51;1.23;;;1.07;;
7813;SDS011;3952;48.364;16.022;2024-02-21T14:48:18;2.10;;;1.10;;
7813;SDS011;3952;48.364;16.022;2024-02-21T14:50:47;1.63;;;0.80;;
7813;SDS011;3952;48.364;16.022;2024-02-21T14:53:15;1.40;;;1.30;;
7813;SDS011;3952;48.364;16.022;2024-02-21T14:55:43;2.27;;;1.27;;
7813;SDS011;3952;48.364;16.022;2024-02-21T14:58:10;2.57;;;1.20;;
7813;SDS011;3952;48.364;16.022;2024-02-21T15:00:38;2.30;;;1.30;;
7813;SDS011;3952;48.364;16.022;2024-02-21T15:03:05;2.83;;;1.27;;
7813;SDS011;3952;48.364;16.022;2024-02-21T15:05:35;1.40;;;1.30;;